sensor_id;sensor_type;location;lat;lon;timestamp;temperature;humidity
837;DHT22;400;53.550;9.932;2022-12-18T00:02:25;0.00;99.90
837;DHT22;400;53.550;9.932;2022-12-18T00:04:52;-0.10;99.90
837;DHT22;400;53.550;9.932;2022-12-18T00:07:19;-0.10;99.90
837;DHT22;400;53.550;9.932;2022-12-18T00:09:47;-0.10;99.90
837;DHT22;400;53.550;9.932;2022-12-18T00:12:13;0.00;99.90
837;DHT22;400;53.550;9.932;2022-12-18T00:14:40;-0.10;99.90
837;DHT22;400;53.550;9.932;2022-12-18T00:17:07;-0.10;99.90
837;DHT22;400;53.550;9.932;2022-12-18T00:19:35;-0.10;99.90
837;DHT22;400;53.550;9.932;2022-12-18T00:22:02;-0.10;99.90
837;DHT22;400;53.550;9.932;2022-12-18T00:24:29;-0.10;99.90
837;DHT22;400;53.550;9.932;2022-12-18T00:26:56;-0.10;99.90
837;DHT22;400;53.550;9.932;2022-12-18T00:29:23;-0.10;99.90
837;DHT22;400;53.550;9.932;2022-12-18T00:31:50;-0.20;99.90
837;DHT22;400;53.550;9.932;2022-12-18T00:34:17;-0.10;99.90
837;DHT22;400;53.550;9.932;2022-12-18T00:36:47;-0.10;99.90
837;DHT22;400;53.550;9.932;2022-12-18T00:39:14;-0.10;99.90
837;DHT22;400;53.550;9.932;2022-12-18T00:41:41;-0.20;99.90
837;DHT22;400;53.550;9.932;2022-12-18T00:44:26;-0.10;99.90
837;DHT22;400;53.550;9.932;2022-12-18T00:46:53;-0.10;99.90
837;DHT22;400;53.550;9.932;2022-12-18T00:49:20;-0.10;99.90
837;DHT22;400;53.550;9.932;2022-12-18T00:51:50;-0.20;99.90
837;DHT22;400;53.550;9.932;2022-12-18T00:54:18;-0.20;99.90
837;DHT22;400;53.550;9.932;2022-12-18T00:56:46;-0.20;99.90
837;DHT22;400;53.550;9.932;2022-12-18T00:59:12;-0.20;99.90
837;DHT22;400;53.550;9.932;2022-12-18T01:01:39;-0.30;99.90
837;DHT22;400;53.550;9.932;2022-12-18T01:04:06;-0.20;99.90
837;DHT22;400;53.550;9.932;2022-12-18T01:06:33;-0.20;99.90
837;DHT22;400;53.550;9.932;2022-12-18T01:09:02;-0.30;99.90
837;DHT22;400;53.550;9.932;2022-12-18T01:11:29;-0.20;99.90
837;DHT22;400;53.550;9.932;2022-12-18T01:13:59;-0.30;99.90
837;DHT22;400;53.550;9.932;2022-12-18T01:16:26;-0.30;99.90
837;DHT22;400;53.550;9.932;2022-12-18T01:18:55;-0.30;99.90
837;DHT22;400;53.550;9.932;2022-12-18T01:21:24;-0.30;99.90
837;DHT22;400;53.550;9.932;2022-12-18T01:23:52;-0.30;99.90
837;DHT22;400;53.550;9.932;2022-12-18T01:26:21;-0.30;99.90
837;DHT22;400;53.550;9.932;2022-12-18T01:28:48;-0.40;99.90
837;DHT22;400;53.550;9.932;2022-12-18T01:31:18;-0.40;99.90
837;DHT22;400;53.550;9.932;2022-12-18T01:33:50;-0.40;99.90
837;DHT22;400;53.550;9.932;2022-12-18T01:36:20;-0.40;99.90
837;DHT22;400;53.550;9.932;2022-12-18T01:38:47;-0.50;99.90
837;DHT22;400;53.550;9.932;2022-12-18T01:41:16;-0.50;99.90
837;DHT22;400;53.550;9.932;2022-12-18T01:43:49;-0.50;99.90
837;DHT22;400;53.550;9.932;2022-12-18T01:46:17;-0.50;99.90
837;DHT22;400;53.550;9.932;2022-12-18T01:48:44;-0.40;99.90
837;DHT22;400;53.550;9.932;2022-12-18T01:51:12;-0.50;99.90
837;DHT22;400;53.550;9.932;2022-12-18T01:53:43;-0.40;99.90
837;DHT22;400;53.550;9.932;2022-12-18T01:56:16;-0.40;99.90
837;DHT22;400;53.550;9.932;2022-12-18T01:58:52;-0.40;99.90
837;DHT22;400;53.550;9.932;2022-12-18T02:01:21;-0.40;99.90
837;DHT22;400;53.550;9.932;2022-12-18T02:03:49;-0.50;99.90
837;DHT22;400;53.550;9.932;2022-12-18T02:06:20;-0.50;99.90
837;DHT22;400;53.550;9.932;2022-12-18T02:09:02;-0.60;99.90
837;DHT22;400;53.550;9.932;2022-12-18T02:11:40;-0.60;99.90
837;DHT22;400;53.550;9.932;2022-12-18T02:14:17;-0.50;99.90
837;DHT22;400;53.550;9.932;2022-12-18T02:16:52;-0.50;99.90
837;DHT22;400;53.550;9.932;2022-12-18T02:19:40;-0.50;99.90
837;DHT22;400;53.550;9.932;2022-12-18T02:22:25;-0.60;99.90
837;DHT22;400;53.550;9.932;2022-12-18T02:25:01;-0.60;99.90
837;DHT22;400;53.550;9.932;2022-12-18T02:27:34;-0.60;99.90
837;DHT22;400;53.550;9.932;2022-12-18T02:30:04;-0.50;99.90
837;DHT22;400;53.550;9.932;2022-12-18T02:32:34;-0.60;99.90
837;DHT22;400;53.550;9.932;2022-12-18T02:35:05;-0.50;99.90
837;DHT22;400;53.550;9.932;2022-12-18T02:37:33;-0.50;99.90
837;DHT22;400;53.550;9.932;2022-12-18T02:40:03;-0.50;99.90
837;DHT22;400;53.550;9.932;2022-12-18T02:42:32;-0.50;99.90
837;DHT22;400;53.550;9.932;2022-12-18T02:44:59;-0.60;99.90
837;DHT22;400;53.550;9.932;2022-12-18T02:47:30;-0.50;99.90
837;DHT22;400;53.550;9.932;2022-12-18T02:50:05;-0.50;99.90
837;DHT22;400;53.550;9.932;2022-12-18T02:52:42;-0.50;99.90
837;DHT22;400;53.550;9.932;2022-12-18T02:55:19;-0.60;99.90
837;DHT22;400;53.550;9.932;2022-12-18T02:57:53;-0.60;99.90
837;DHT22;400;53.550;9.932;2022-12-18T03:00:23;-0.70;99.90
837;DHT22;400;53.550;9.932;2022-12-18T03:02:55;-0.70;99.90
837;DHT22;400;53.550;9.932;2022-12-18T03:05:31;-0.70;99.90
837;DHT22;400;53.550;9.932;2022-12-18T03:08:03;-0.70;99.90
837;DHT22;400;53.550;9.932;2022-12-18T03:10:35;-0.70;99.90
837;DHT22;400;53.550;9.932;2022-12-18T03:13:07;-0.70;99.90
837;DHT22;400;53.550;9.932;2022-12-18T03:15:37;-0.70;99.90
837;DHT22;400;53.550;9.932;2022-12-18T03:18:07;-0.80;99.90
837;DHT22;400;53.550;9.932;2022-12-18T03:20:37;-0.90;99.90
837;DHT22;400;53.550;9.932;2022-12-18T03:23:09;-0.90;99.90
837;DHT22;400;53.550;9.932;2022-12-18T03:25:41;-0.90;99.90
837;DHT22;400;53.550;9.932;2022-12-18T03:28:12;-0.90;99.90
837;DHT22;400;53.550;9.932;2022-12-18T03:30:41;-0.90;99.90
837;DHT22;400;53.550;9.932;2022-12-18T03:33:12;-1.00;99.90
837;DHT22;400;53.550;9.932;2022-12-18T03:35:41;-1.00;99.90
837;DHT22;400;53.550;9.932;2022-12-18T03:38:09;-1.00;99.90
837;DHT22;400;53.550;9.932;2022-12-18T03:40:48;-1.00;99.90
837;DHT22;400;53.550;9.932;2022-12-18T03:43:36;-1.00;99.90
837;DHT22;400;53.550;9.932;2022-12-18T03:46:10;-1.00;99.90
837;DHT22;400;53.550;9.932;2022-12-18T03:48:45;-1.10;99.90
837;DHT22;400;53.550;9.932;2022-12-18T03:51:19;-1.00;99.90
837;DHT22;400;53.550;9.932;2022-12-18T03:53:54;-1.10;99.90
837;DHT22;400;53.550;9.932;2022-12-18T03:56:24;-1.10;99.90
837;DHT22;400;53.550;9.932;2022-12-18T03:58:54;-1.10;99.90
837;DHT22;400;53.550;9.932;2022-12-18T04:01:25;-1.10;99.90
837;DHT22;400;53.550;9.932;2022-12-18T04:03:58;-1.10;99.90
837;DHT22;400;53.550;9.932;2022-12-18T04:06:31;-1.10;99.90
837;DHT22;400;53.550;9.932;2022-12-18T04:09:03;-1.10;99.90
837;DHT22;400;53.550;9.932;2022-12-18T04:11:30;-1.10;99.90
837;DHT22;400;53.550;9.932;2022-12-18T04:13:58;-1.10;99.90
837;DHT22;400;53.550;9.932;2022-12-18T04:16:26;-1.10;99.90
837;DHT22;400;53.550;9.932;2022-12-18T04:18:53;-1.10;99.90
837;DHT22;400;53.550;9.932;2022-12-18T04:21:20;-1.10;99.90
837;DHT22;400;53.550;9.932;2022-12-18T04:23:48;-1.10;99.90
837;DHT22;400;53.550;9.932;2022-12-18T04:26:15;-1.10;99.90
837;DHT22;400;53.550;9.932;2022-12-18T04:28:41;-1.10;99.90
837;DHT22;400;53.550;9.932;2022-12-18T04:31:10;-1.10;99.90
837;DHT22;400;53.550;9.932;2022-12-18T04:33:37;-1.10;99.90
837;DHT22;400;53.550;9.932;2022-12-18T04:36:04;-1.10;99.90
837;DHT22;400;53.550;9.932;2022-12-18T04:38:31;-1.10;99.90
837;DHT22;400;53.550;9.932;2022-12-18T04:40:58;-1.10;99.90
837;DHT22;400;53.550;9.932;2022-12-18T04:43:25;-1.10;99.90
837;DHT22;400;53.550;9.932;2022-12-18T04:45:52;-1.10;99.90
837;DHT22;400;53.550;9.932;2022-12-18T04:48:20;-1.10;99.90
837;DHT22;400;53.550;9.932;2022-12-18T04:50:47;-1.10;99.90
837;DHT22;400;53.550;9.932;2022-12-18T04:53:14;-1.10;99.90
837;DHT22;400;53.550;9.932;2022-12-18T04:59:04;-1.20;99.90
837;DHT22;400;53.550;9.932;2022-12-18T05:01:30;-1.20;99.90
837;DHT22;400;53.550;9.932;2022-12-18T05:03:59;-1.20;99.90
837;DHT22;400;53.550;9.932;2022-12-18T05:06:25;-1.20;99.90
837;DHT22;400;53.550;9.932;2022-12-18T05:08:52;-1.20;99.90
837;DHT22;400;53.550;9.932;2022-12-18T05:11:19;-1.30;99.90
837;DHT22;400;53.550;9.932;2022-12-18T05:13:46;-1.30;99.90
837;DHT22;400;53.550;9.932;2022-12-18T05:16:13;-1.30;99.90
837;DHT22;400;53.550;9.932;2022-12-18T05:18:41;-1.30;99.90
837;DHT22;400;53.550;9.932;2022-12-18T05:21:09;-1.30;99.90
837;DHT22;400;53.550;9.932;2022-12-18T05:23:37;-1.40;99.90
837;DHT22;400;53.550;9.932;2022-12-18T05:26:05;-1.40;99.90
837;DHT22;400;53.550;9.932;2022-12-18T05:28:34;-1.40;99.90
837;DHT22;400;53.550;9.932;2022-12-18T05:31:03;-1.40;99.90
837;DHT22;400;53.550;9.932;2022-12-18T05:33:32;-1.40;99.90
837;DHT22;400;53.550;9.932;2022-12-18T05:36:00;-1.40;99.90
837;DHT22;400;53.550;9.932;2022-12-18T05:38:29;-1.40;99.90
837;DHT22;400;53.550;9.932;2022-12-18T05:40:56;-1.40;99.90
837;DHT22;400;53.550;9.932;2022-12-18T05:43:25;-1.40;99.90
837;DHT22;400;53.550;9.932;2022-12-18T05:45:52;-1.50;99.90
837;DHT22;400;53.550;9.932;2022-12-18T05:48:20;-1.50;99.90
837;DHT22;400;53.550;9.932;2022-12-18T05:50:47;-1.50;99.90
837;DHT22;400;53.550;9.932;2022-12-18T05:53:18;-1.50;99.90
837;DHT22;400;53.550;9.932;2022-12-18T05:55:47;-1.50;99.90
837;DHT22;400;53.550;9.932;2022-12-18T05:58:14;-1.50;99.90
837;DHT22;400;53.550;9.932;2022-12-18T06:00:43;-1.50;99.90
837;DHT22;400;53.550;9.932;2022-12-18T06:03:12;-1.60;99.90
837;DHT22;400;53.550;9.932;2022-12-18T06:05:41;-1.60;99.90
837;DHT22;400;53.550;9.932;2022-12-18T06:08:09;-1.60;99.90
837;DHT22;400;53.550;9.932;2022-12-18T06:10:36;-1.60;99.90
837;DHT22;400;53.550;9.932;2022-12-18T06:13:05;-1.60;99.90
837;DHT22;400;53.550;9.932;2022-12-18T06:15:32;-1.60;99.90
837;DHT22;400;53.550;9.932;2022-12-18T06:18:00;-1.50;99.90
837;DHT22;400;53.550;9.932;2022-12-18T06:20:30;-1.50;99.90
837;DHT22;400;53.550;9.932;2022-12-18T06:22:57;-1.60;99.90
837;DHT22;400;53.550;9.932;2022-12-18T06:25:23;-1.60;99.90
837;DHT22;400;53.550;9.932;2022-12-18T06:27:50;-1.60;99.90
837;DHT22;400;53.550;9.932;2022-12-18T06:30:19;-1.60;99.90
837;DHT22;400;53.550;9.932;2022-12-18T06:32:48;-1.60;99.90
837;DHT22;400;53.550;9.932;2022-12-18T06:35:15;-1.60;99.90
837;DHT22;400;53.550;9.932;2022-12-18T06:37:41;-1.70;99.90
837;DHT22;400;53.550;9.932;2022-12-18T06:40:09;-1.70;99.90
837;DHT22;400;53.550;9.932;2022-12-18T06:42:36;-1.70;99.90
837;DHT22;400;53.550;9.932;2022-12-18T06:45:06;-1.70;99.90
837;DHT22;400;53.550;9.932;2022-12-18T06:47:34;-1.60;99.90
837;DHT22;400;53.550;9.932;2022-12-18T06:50:01;-1.60;99.90
837;DHT22;400;53.550;9.932;2022-12-18T06:52:28;-1.60;99.90
837;DHT22;400;53.550;9.932;2022-12-18T06:54:55;-1.60;99.90
837;DHT22;400;53.550;9.932;2022-12-18T06:57:22;-1.70;99.90
837;DHT22;400;53.550;9.932;2022-12-18T06:59:49;-1.60;99.90
837;DHT22;400;53.550;9.932;2022-12-18T07:02:16;-1.70;99.90
837;DHT22;400;53.550;9.932;2022-12-18T07:04:44;-1.60;99.90
837;DHT22;400;53.550;9.932;2022-12-18T07:07:11;-1.70;99.90
837;DHT22;400;53.550;9.932;2022-12-18T07:09:37;-1.70;99.90
837;DHT22;400;53.550;9.932;2022-12-18T07:12:04;-1.60;99.90
837;DHT22;400;53.550;9.932;2022-12-18T07:14:32;-1.60;99.90
837;DHT22;400;53.550;9.932;2022-12-18T07:16:59;-1.70;99.90
837;DHT22;400;53.550;9.932;2022-12-18T07:19:26;-1.70;99.90
837;DHT22;400;53.550;9.932;2022-12-18T07:21:54;-1.80;99.90
837;DHT22;400;53.550;9.932;2022-12-18T07:24:20;-1.80;99.90
837;DHT22;400;53.550;9.932;2022-12-18T07:26:47;-1.70;99.90
837;DHT22;400;53.550;9.932;2022-12-18T07:29:14;-1.70;99.90
837;DHT22;400;53.550;9.932;2022-12-18T07:31:41;-1.70;99.90
837;DHT22;400;53.550;9.932;2022-12-18T07:34:10;-1.80;99.90
837;DHT22;400;53.550;9.932;2022-12-18T07:36:37;-1.70;99.90
837;DHT22;400;53.550;9.932;2022-12-18T07:39:05;-1.70;99.90
837;DHT22;400;53.550;9.932;2022-12-18T07:41:32;-1.70;99.90
837;DHT22;400;53.550;9.932;2022-12-18T07:43:59;-1.70;99.90
837;DHT22;400;53.550;9.932;2022-12-18T07:46:26;-1.70;99.90
837;DHT22;400;53.550;9.932;2022-12-18T07:48:53;-1.60;99.90
837;DHT22;400;53.550;9.932;2022-12-18T07:51:20;-1.70;99.90
837;DHT22;400;53.550;9.932;2022-12-18T07:53:47;-1.60;99.90
837;DHT22;400;53.550;9.932;2022-12-18T07:56:15;-1.60;99.90
837;DHT22;400;53.550;9.932;2022-12-18T07:58:42;-1.50;99.90
837;DHT22;400;53.550;9.932;2022-12-18T08:01:11;-1.50;99.90
837;DHT22;400;53.550;9.932;2022-12-18T08:03:39;-1.60;99.90
837;DHT22;400;53.550;9.932;2022-12-18T08:06:08;-1.60;99.90
837;DHT22;400;53.550;9.932;2022-12-18T08:08:35;-1.60;99.90
837;DHT22;400;53.550;9.932;2022-12-18T08:11:02;-1.60;99.90
837;DHT22;400;53.550;9.932;2022-12-18T08:13:30;-1.60;99.90
837;DHT22;400;53.550;9.932;2022-12-18T08:15:58;-1.60;99.90
837;DHT22;400;53.550;9.932;2022-12-18T08:18:26;-1.60;99.90
837;DHT22;400;53.550;9.932;2022-12-18T08:20:53;-1.60;99.90
837;DHT22;400;53.550;9.932;2022-12-18T08:23:20;-1.60;99.90
837;DHT22;400;53.550;9.932;2022-12-18T08:25:48;-1.60;99.90
837;DHT22;400;53.550;9.932;2022-12-18T08:28:15;-1.60;99.90
837;DHT22;400;53.550;9.932;2022-12-18T08:30:44;-1.60;99.90
837;DHT22;400;53.550;9.932;2022-12-18T08:33:12;-1.50;99.90
837;DHT22;400;53.550;9.932;2022-12-18T08:35:39;-1.50;99.90
837;DHT22;400;53.550;9.932;2022-12-18T08:38:06;-1.60;99.90
837;DHT22;400;53.550;9.932;2022-12-18T08:40:33;-1.50;99.90
837;DHT22;400;53.550;9.932;2022-12-18T08:43:01;-1.50;99.90
837;DHT22;400;53.550;9.932;2022-12-18T08:45:46;-1.50;99.90
837;DHT22;400;53.550;9.932;2022-12-18T08:48:13;-1.50;99.90
837;DHT22;400;53.550;9.932;2022-12-18T08:50:40;-1.50;99.90
837;DHT22;400;53.550;9.932;2022-12-18T08:53:07;-1.50;99.90
837;DHT22;400;53.550;9.932;2022-12-18T08:55:34;-1.40;99.90
837;DHT22;400;53.550;9.932;2022-12-18T08:58:05;-1.40;99.90
837;DHT22;400;53.550;9.932;2022-12-18T09:00:31;-1.40;99.90
837;DHT22;400;53.550;9.932;2022-12-18T09:03:01;-1.40;99.90
837;DHT22;400;53.550;9.932;2022-12-18T09:05:31;-1.30;99.90
837;DHT22;400;53.550;9.932;2022-12-18T09:07:59;-1.30;99.90
837;DHT22;400;53.550;9.932;2022-12-18T09:10:28;-1.30;99.90
837;DHT22;400;53.550;9.932;2022-12-18T09:12:55;-1.30;99.90
837;DHT22;400;53.550;9.932;2022-12-18T09:15:22;-1.30;99.90
837;DHT22;400;53.550;9.932;2022-12-18T09:17:48;-1.20;99.90
837;DHT22;400;53.550;9.932;2022-12-18T09:20:19;-1.20;99.90
837;DHT22;400;53.550;9.932;2022-12-18T09:22:46;-1.20;99.90
837;DHT22;400;53.550;9.932;2022-12-18T09:25:13;-1.10;99.90
837;DHT22;400;53.550;9.932;2022-12-18T09:27:39;-1.10;99.90
837;DHT22;400;53.550;9.932;2022-12-18T09:30:08;-1.10;99.90
837;DHT22;400;53.550;9.932;2022-12-18T09:32:34;-1.10;99.90
837;DHT22;400;53.550;9.932;2022-12-18T09:35:02;-1.10;99.90
837;DHT22;400;53.550;9.932;2022-12-18T09:37:30;-1.00;99.90
837;DHT22;400;53.550;9.932;2022-12-18T09:39:57;-1.00;99.90
837;DHT22;400;53.550;9.932;2022-12-18T09:42:24;-0.90;99.90
837;DHT22;400;53.550;9.932;2022-12-18T09:44:53;-0.80;99.90
837;DHT22;400;53.550;9.932;2022-12-18T09:47:23;-0.70;99.90
837;DHT22;400;53.550;9.932;2022-12-18T09:49:54;-0.60;99.90
837;DHT22;400;53.550;9.932;2022-12-18T09:52:26;-0.60;99.90
837;DHT22;400;53.550;9.932;2022-12-18T09:55:00;-0.60;99.90
837;DHT22;400;53.550;9.932;2022-12-18T09:57:29;-0.50;99.90
837;DHT22;400;53.550;9.932;2022-12-18T10:00:05;-0.50;99.90
837;DHT22;400;53.550;9.932;2022-12-18T10:02:34;-0.50;99.90
837;DHT22;400;53.550;9.932;2022-12-18T10:05:06;-0.50;99.90
837;DHT22;400;53.550;9.932;2022-12-18T10:07:43;-0.40;99.90
837;DHT22;400;53.550;9.932;2022-12-18T10:10:23;-0.40;99.90
837;DHT22;400;53.550;9.932;2022-12-18T10:12:59;-0.30;99.90
837;DHT22;400;53.550;9.932;2022-12-18T10:15:33;-0.30;99.90
837;DHT22;400;53.550;9.932;2022-12-18T10:18:07;-0.30;99.90
837;DHT22;400;53.550;9.932;2022-12-18T10:20:44;-0.20;99.90
837;DHT22;400;53.550;9.932;2022-12-18T10:23:17;-0.20;99.90
837;DHT22;400;53.550;9.932;2022-12-18T10:25:53;-0.20;99.90
837;DHT22;400;53.550;9.932;2022-12-18T10:28:22;-0.20;99.90
837;DHT22;400;53.550;9.932;2022-12-18T10:30:49;-0.20;99.90
837;DHT22;400;53.550;9.932;2022-12-18T10:33:18;-0.20;99.90
837;DHT22;400;53.550;9.932;2022-12-18T10:35:49;-0.10;99.90
837;DHT22;400;53.550;9.932;2022-12-18T10:38:24;0.00;99.90
837;DHT22;400;53.550;9.932;2022-12-18T10:40:56;0.00;99.90
837;DHT22;400;53.550;9.932;2022-12-18T10:43:27;0.10;99.90
837;DHT22;400;53.550;9.932;2022-12-18T10:46:11;0.10;99.90
837;DHT22;400;53.550;9.932;2022-12-18T10:48:53;0.00;99.90
837;DHT22;400;53.550;9.932;2022-12-18T10:51:25;0.10;99.90
837;DHT22;400;53.550;9.932;2022-12-18T10:53:57;0.20;99.90
837;DHT22;400;53.550;9.932;2022-12-18T10:56:27;0.20;99.90
837;DHT22;400;53.550;9.932;2022-12-18T10:59:00;0.30;99.90
837;DHT22;400;53.550;9.932;2022-12-18T11:01:28;0.30;99.90
837;DHT22;400;53.550;9.932;2022-12-18T11:04:08;0.40;99.90
837;DHT22;400;53.550;9.932;2022-12-18T11:06:53;0.40;99.90
837;DHT22;400;53.550;9.932;2022-12-18T11:09:23;0.40;99.90
837;DHT22;400;53.550;9.932;2022-12-18T11:11:55;0.50;99.90
837;DHT22;400;53.550;9.932;2022-12-18T11:14:26;0.50;99.90
837;DHT22;400;53.550;9.932;2022-12-18T11:16:55;0.60;99.90
837;DHT22;400;53.550;9.932;2022-12-18T11:19:31;0.60;99.90
837;DHT22;400;53.550;9.932;2022-12-18T11:22:00;0.50;99.90
837;DHT22;400;53.550;9.932;2022-12-18T11:24:31;0.50;99.90
837;DHT22;400;53.550;9.932;2022-12-18T11:27:04;0.50;99.90
837;DHT22;400;53.550;9.932;2022-12-18T11:29:35;0.60;99.90
837;DHT22;400;53.550;9.932;2022-12-18T11:32:26;0.60;99.90
837;DHT22;400;53.550;9.932;2022-12-18T11:34:59;0.60;99.90
837;DHT22;400;53.550;9.932;2022-12-18T11:37:27;0.60;99.90
837;DHT22;400;53.550;9.932;2022-12-18T11:39:57;0.60;99.90
837;DHT22;400;53.550;9.932;2022-12-18T11:42:35;0.60;99.90
837;DHT22;400;53.550;9.932;2022-12-18T11:45:18;0.60;99.90
837;DHT22;400;53.550;9.932;2022-12-18T11:47:52;0.70;99.90
837;DHT22;400;53.550;9.932;2022-12-18T11:50:26;0.70;99.90
837;DHT22;400;53.550;9.932;2022-12-18T11:52:56;0.70;99.90
837;DHT22;400;53.550;9.932;2022-12-18T11:55:31;0.70;99.90
837;DHT22;400;53.550;9.932;2022-12-18T11:58:09;0.70;99.90
837;DHT22;400;53.550;9.932;2022-12-18T12:00:43;0.70;99.90
837;DHT22;400;53.550;9.932;2022-12-18T12:03:42;0.60;99.90
837;DHT22;400;53.550;9.932;2022-12-18T12:06:19;0.60;99.90
837;DHT22;400;53.550;9.932;2022-12-18T12:08:57;0.60;99.90
837;DHT22;400;53.550;9.932;2022-12-18T12:11:35;0.50;99.90
837;DHT22;400;53.550;9.932;2022-12-18T12:14:30;0.50;99.90
837;DHT22;400;53.550;9.932;2022-12-18T12:17:05;0.50;99.90
837;DHT22;400;53.550;9.932;2022-12-18T12:19:43;0.50;99.90
837;DHT22;400;53.550;9.932;2022-12-18T12:22:18;0.60;99.90
837;DHT22;400;53.550;9.932;2022-12-18T12:25:02;0.60;99.90
837;DHT22;400;53.550;9.932;2022-12-18T12:27:42;0.60;99.90
837;DHT22;400;53.550;9.932;2022-12-18T12:30:18;0.60;99.90
837;DHT22;400;53.550;9.932;2022-12-18T12:32:58;0.60;99.90
837;DHT22;400;53.550;9.932;2022-12-18T12:35:34;0.60;99.90
837;DHT22;400;53.550;9.932;2022-12-18T12:38:08;0.60;99.90
837;DHT22;400;53.550;9.932;2022-12-18T12:40:41;0.60;99.90
837;DHT22;400;53.550;9.932;2022-12-18T12:43:22;0.70;99.90
837;DHT22;400;53.550;9.932;2022-12-18T12:45:54;0.70;99.90
837;DHT22;400;53.550;9.932;2022-12-18T12:48:39;0.70;99.90
837;DHT22;400;53.550;9.932;2022-12-18T12:51:15;0.80;99.90
837;DHT22;400;53.550;9.932;2022-12-18T12:53:45;0.80;99.90
837;DHT22;400;53.550;9.932;2022-12-18T12:56:17;0.70;99.90
837;DHT22;400;53.550;9.932;2022-12-18T12:58:55;0.70;99.90
837;DHT22;400;53.550;9.932;2022-12-18T13:01:35;0.70;99.90
837;DHT22;400;53.550;9.932;2022-12-18T13:04:17;0.80;99.90
837;DHT22;400;53.550;9.932;2022-12-18T13:06:57;0.80;99.90
837;DHT22;400;53.550;9.932;2022-12-18T13:09:30;0.80;99.90
837;DHT22;400;53.550;9.932;2022-12-18T13:12:02;0.80;99.90
837;DHT22;400;53.550;9.932;2022-12-18T13:14:49;0.90;99.90
837;DHT22;400;53.550;9.932;2022-12-18T13:17:28;1.00;99.90
837;DHT22;400;53.550;9.932;2022-12-18T13:20:11;1.00;99.90
837;DHT22;400;53.550;9.932;2022-12-18T13:22:42;1.10;99.90
837;DHT22;400;53.550;9.932;2022-12-18T13:25:34;1.00;99.90
837;DHT22;400;53.550;9.932;2022-12-18T13:28:10;1.00;99.90
837;DHT22;400;53.550;9.932;2022-12-18T13:30:49;0.90;99.90
837;DHT22;400;53.550;9.932;2022-12-18T13:33:41;1.00;99.90
837;DHT22;400;53.550;9.932;2022-12-18T13:36:14;0.80;99.90
837;DHT22;400;53.550;9.932;2022-12-18T13:38:44;0.80;99.90
837;DHT22;400;53.550;9.932;2022-12-18T13:41:25;0.80;99.90
837;DHT22;400;53.550;9.932;2022-12-18T13:43:54;0.80;99.90
837;DHT22;400;53.550;9.932;2022-12-18T13:46:27;0.70;99.90
837;DHT22;400;53.550;9.932;2022-12-18T13:49:00;0.70;99.90
837;DHT22;400;53.550;9.932;2022-12-18T13:51:27;0.70;99.90
837;DHT22;400;53.550;9.932;2022-12-18T13:53:58;0.70;99.90
837;DHT22;400;53.550;9.932;2022-12-18T13:56:26;0.70;99.90
837;DHT22;400;53.550;9.932;2022-12-18T13:59:11;0.60;99.90
837;DHT22;400;53.550;9.932;2022-12-18T14:01:46;0.60;99.90
837;DHT22;400;53.550;9.932;2022-12-18T14:04:25;0.60;99.90
837;DHT22;400;53.550;9.932;2022-12-18T14:06:55;0.60;99.90
837;DHT22;400;53.550;9.932;2022-12-18T14:09:27;0.60;99.90
837;DHT22;400;53.550;9.932;2022-12-18T14:11:56;0.50;99.90
837;DHT22;400;53.550;9.932;2022-12-18T14:14:37;0.50;99.90
837;DHT22;400;53.550;9.932;2022-12-18T14:17:09;0.50;99.90
837;DHT22;400;53.550;9.932;2022-12-18T14:19:41;0.40;99.90
837;DHT22;400;53.550;9.932;2022-12-18T14:22:15;0.40;99.90
837;DHT22;400;53.550;9.932;2022-12-18T14:24:44;0.40;99.90
837;DHT22;400;53.550;9.932;2022-12-18T14:27:22;0.30;99.90
837;DHT22;400;53.550;9.932;2022-12-18T14:29:50;0.30;99.90
837;DHT22;400;53.550;9.932;2022-12-18T14:32:20;0.20;99.90
837;DHT22;400;53.550;9.932;2022-12-18T14:34:51;0.30;99.90
837;DHT22;400;53.550;9.932;2022-12-18T14:37:23;0.20;99.90
837;DHT22;400;53.550;9.932;2022-12-18T14:39:55;0.20;99.90
837;DHT22;400;53.550;9.932;2022-12-18T14:47:54;0.10;99.90
837;DHT22;400;53.550;9.932;2022-12-18T14:50:23;0.00;99.90
837;DHT22;400;53.550;9.932;2022-12-18T14:52:50;0.00;99.90
837;DHT22;400;53.550;9.932;2022-12-18T14:55:19;0.00;99.90
837;DHT22;400;53.550;9.932;2022-12-18T14:57:51;0.00;99.90
837;DHT22;400;53.550;9.932;2022-12-18T15:00:23;-0.10;99.90
837;DHT22;400;53.550;9.932;2022-12-18T15:02:58;-0.10;99.90
837;DHT22;400;53.550;9.932;2022-12-18T15:05:28;-0.10;99.90
837;DHT22;400;53.550;9.932;2022-12-18T15:07:58;-0.10;99.90
837;DHT22;400;53.550;9.932;2022-12-18T15:10:30;-0.20;99.90
837;DHT22;400;53.550;9.932;2022-12-18T15:13:16;-0.20;99.90
837;DHT22;400;53.550;9.932;2022-12-18T15:15:48;-0.20;99.90
837;DHT22;400;53.550;9.932;2022-12-18T15:18:17;-0.20;99.90
837;DHT22;400;53.550;9.932;2022-12-18T15:20:49;-0.30;99.90
837;DHT22;400;53.550;9.932;2022-12-18T15:23:46;-0.30;99.90
837;DHT22;400;53.550;9.932;2022-12-18T15:26:16;-0.40;99.90
837;DHT22;400;53.550;9.932;2022-12-18T15:28:47;-0.40;99.90
837;DHT22;400;53.550;9.932;2022-12-18T15:31:28;-0.30;99.90
837;DHT22;400;53.550;9.932;2022-12-18T15:34:12;-0.40;99.90
837;DHT22;400;53.550;9.932;2022-12-18T15:36:43;-0.40;99.90
837;DHT22;400;53.550;9.932;2022-12-18T15:39:13;-0.40;99.90
837;DHT22;400;53.550;9.932;2022-12-18T15:41:42;-0.40;99.90
837;DHT22;400;53.550;9.932;2022-12-18T15:44:30;-0.40;99.90
837;DHT22;400;53.550;9.932;2022-12-18T15:46:57;-0.30;99.90
837;DHT22;400;53.550;9.932;2022-12-18T15:49:25;-0.30;99.90
837;DHT22;400;53.550;9.932;2022-12-18T15:51:56;-0.20;99.90
837;DHT22;400;53.550;9.932;2022-12-18T15:54:27;-0.20;99.90
837;DHT22;400;53.550;9.932;2022-12-18T15:57:13;-0.20;99.90
837;DHT22;400;53.550;9.932;2022-12-18T15:59:55;-0.20;99.90
837;DHT22;400;53.550;9.932;2022-12-18T16:02:26;-0.20;99.90
837;DHT22;400;53.550;9.932;2022-12-18T16:04:56;-0.30;99.90
837;DHT22;400;53.550;9.932;2022-12-18T16:07:25;-0.30;99.90
837;DHT22;400;53.550;9.932;2022-12-18T16:09:53;-0.20;99.90
837;DHT22;400;53.550;9.932;2022-12-18T16:12:26;-0.20;99.90
837;DHT22;400;53.550;9.932;2022-12-18T16:14:55;-0.30;99.90
837;DHT22;400;53.550;9.932;2022-12-18T16:17:28;-0.30;99.90
837;DHT22;400;53.550;9.932;2022-12-18T16:19:55;-0.40;99.90
837;DHT22;400;53.550;9.932;2022-12-18T16:22:25;-0.40;99.90
837;DHT22;400;53.550;9.932;2022-12-18T16:24:53;-0.40;99.90
837;DHT22;400;53.550;9.932;2022-12-18T16:27:22;-0.30;99.90
837;DHT22;400;53.550;9.932;2022-12-18T16:29:52;-0.40;99.90
837;DHT22;400;53.550;9.932;2022-12-18T16:32:22;-0.40;99.90
837;DHT22;400;53.550;9.932;2022-12-18T16:34:51;-0.40;99.90
837;DHT22;400;53.550;9.932;2022-12-18T16:37:18;-0.50;99.90
837;DHT22;400;53.550;9.932;2022-12-18T16:39:48;-0.40;99.90
837;DHT22;400;53.550;9.932;2022-12-18T16:42:18;-0.40;99.90
837;DHT22;400;53.550;9.932;2022-12-18T16:44:48;-0.50;99.90
837;DHT22;400;53.550;9.932;2022-12-18T16:47:21;-0.50;99.90
837;DHT22;400;53.550;9.932;2022-12-18T16:49:50;-0.60;99.90
837;DHT22;400;53.550;9.932;2022-12-18T16:52:19;-0.50;99.90
837;DHT22;400;53.550;9.932;2022-12-18T16:54:46;-0.50;99.90
837;DHT22;400;53.550;9.932;2022-12-18T16:57:17;-0.50;99.90
837;DHT22;400;53.550;9.932;2022-12-18T16:59:45;-0.60;99.90
837;DHT22;400;53.550;9.932;2022-12-18T17:02:15;-0.50;99.90
837;DHT22;400;53.550;9.932;2022-12-18T17:04:47;-0.50;99.90
837;DHT22;400;53.550;9.932;2022-12-18T17:07:16;-0.50;99.90
837;DHT22;400;53.550;9.932;2022-12-18T17:09:43;-0.40;99.90
837;DHT22;400;53.550;9.932;2022-12-18T17:12:10;-0.50;99.90
837;DHT22;400;53.550;9.932;2022-12-18T17:14:39;-0.50;99.90